sensor_id;sensor_type;location;lat;lon;timestamp;temperature;humidity
52709;DHT22;38606;52.986;6.980;2023-11-19T00:00:33;10.30;99.90
52709;DHT22;38606;52.986;6.980;2023-11-19T00:02:59;10.40;99.90
52709;DHT22;38606;52.986;6.980;2023-11-19T00:05:25;11.90;99.90
52709;DHT22;38606;52.986;6.980;2023-11-19T00:07:50;10.10;99.90
52709;DHT22;38606;52.986;6.980;2023-11-19T00:10:16;10.30;99.90
52709;DHT22;38606;52.986;6.980;2023-11-19T00:12:47;10.30;99.90
52709;DHT22;38606;52.986;6.980;2023-11-19T00:15:14;10.20;99.90
52709;DHT22;38606;52.986;6.980;2023-11-19T00:17:41;10.20;99.90
52709;DHT22;38606;52.986;6.980;2023-11-19T00:20:19;10.40;99.90
52709;DHT22;38606;52.986;6.980;2023-11-19T00:22:47;10.40;99.90
52709;DHT22;38606;52.986;6.980;2023-11-19T00:25:16;10.60;99.90
52709;DHT22;38606;52.986;6.980;2023-11-19T00:27:42;10.50;99.90
52709;DHT22;38606;52.986;6.980;2023-11-19T00:30:10;10.20;99.90
52709;DHT22;38606;52.986;6.980;2023-11-19T00:32:36;10.50;99.90
52709;DHT22;38606;52.986;6.980;2023-11-19T00:35:04;10.40;99.90
52709;DHT22;38606;52.986;6.980;2023-11-19T00:37:30;10.40;99.90
52709;DHT22;38606;52.986;6.980;2023-11-19T00:39:56;10.40;99.90
52709;DHT22;38606;52.986;6.980;2023-11-19T00:42:22;10.60;99.90
52709;DHT22;38606;52.986;6.980;2023-11-19T00:44:50;10.70;99.90
52709;DHT22;38606;52.986;6.980;2023-11-19T00:47:15;10.70;99.90
52709;DHT22;38606;52.986;6.980;2023-11-19T00:49:41;10.60;99.90
52709;DHT22;38606;52.986;6.980;2023-11-19T00:52:08;10.70;99.90
52709;DHT22;38606;52.986;6.980;2023-11-19T00:54:34;10.50;99.90
52709;DHT22;38606;52.986;6.980;2023-11-19T00:56:59;10.50;99.90
52709;DHT22;38606;52.986;6.980;2023-11-19T00:59:27;10.60;99.90
52709;DHT22;38606;52.986;6.980;2023-11-19T01:01:54;10.80;99.90
52709;DHT22;38606;52.986;6.980;2023-11-19T01:04:19;10.80;99.90
52709;DHT22;38606;52.986;6.980;2023-11-19T01:06:45;11.00;99.90
52709;DHT22;38606;52.986;6.980;2023-11-19T01:09:11;11.00;99.90
52709;DHT22;38606;52.986;6.980;2023-11-19T01:11:37;10.90;99.90
52709;DHT22;38606;52.986;6.980;2023-11-19T01:14:02;10.90;99.90
52709;DHT22;38606;52.986;6.980;2023-11-19T01:16:28;11.00;99.90
52709;DHT22;38606;52.986;6.980;2023-11-19T01:18:54;11.00;99.90
52709;DHT22;38606;52.986;6.980;2023-11-19T01:21:20;11.10;99.90
52709;DHT22;38606;52.986;6.980;2023-11-19T01:23:47;11.10;99.90
52709;DHT22;38606;52.986;6.980;2023-11-19T01:26:13;11.00;99.90
52709;DHT22;38606;52.986;6.980;2023-11-19T01:28:42;11.30;99.90
52709;DHT22;38606;52.986;6.980;2023-11-19T01:31:11;11.30;99.90
52709;DHT22;38606;52.986;6.980;2023-11-19T01:33:38;11.30;99.90
52709;DHT22;38606;52.986;6.980;2023-11-19T01:36:05;11.10;99.90
52709;DHT22;38606;52.986;6.980;2023-11-19T01:38:31;11.30;99.90
52709;DHT22;38606;52.986;6.980;2023-11-19T01:40:57;11.40;99.90
52709;DHT22;38606;52.986;6.980;2023-11-19T01:43:33;11.30;99.90
52709;DHT22;38606;52.986;6.980;2023-11-19T01:46:00;11.50;99.90
52709;DHT22;38606;52.986;6.980;2023-11-19T01:48:26;11.40;99.90
52709;DHT22;38606;52.986;6.980;2023-11-19T01:50:52;11.50;99.90
52709;DHT22;38606;52.986;6.980;2023-11-19T01:53:19;11.40;99.90
52709;DHT22;38606;52.986;6.980;2023-11-19T01:55:47;11.30;99.90
52709;DHT22;38606;52.986;6.980;2023-11-19T01:58:13;11.50;99.90
52709;DHT22;38606;52.986;6.980;2023-11-19T02:00:39;11.50;99.90
52709;DHT22;38606;52.986;6.980;2023-11-19T02:03:06;11.60;99.90
52709;DHT22;38606;52.986;6.980;2023-11-19T02:05:34;11.50;99.90
52709;DHT22;38606;52.986;6.980;2023-11-19T02:08:00;11.60;99.90
52709;DHT22;38606;52.986;6.980;2023-11-19T02:10:26;13.30;99.90
52709;DHT22;38606;52.986;6.980;2023-11-19T02:12:52;11.60;99.90
52709;DHT22;38606;52.986;6.980;2023-11-19T02:15:18;11.60;99.90
52709;DHT22;38606;52.986;6.980;2023-11-19T02:17:50;11.70;99.90
52709;DHT22;38606;52.986;6.980;2023-11-19T02:20:16;11.60;99.90
52709;DHT22;38606;52.986;6.980;2023-11-19T02:22:42;11.60;99.90
52709;DHT22;38606;52.986;6.980;2023-11-19T02:25:11;12.00;99.90
52709;DHT22;38606;52.986;6.980;2023-11-19T02:27:56;11.60;99.90
52709;DHT22;38606;52.986;6.980;2023-11-19T02:30:23;11.60;99.90
52709;DHT22;38606;52.986;6.980;2023-11-19T02:33:01;11.80;99.90
52709;DHT22;38606;52.986;6.980;2023-11-19T02:35:31;11.90;99.90
52709;DHT22;38606;52.986;6.980;2023-11-19T02:37:58;11.90;99.90
52709;DHT22;38606;52.986;6.980;2023-11-19T02:40:25;11.60;99.90
52709;DHT22;38606;52.986;6.980;2023-11-19T02:42:52;11.70;99.90
52709;DHT22;38606;52.986;6.980;2023-11-19T02:45:18;11.70;99.90
52709;DHT22;38606;52.986;6.980;2023-11-19T02:47:44;11.60;99.90
52709;DHT22;38606;52.986;6.980;2023-11-19T02:50:12;11.70;99.90
52709;DHT22;38606;52.986;6.980;2023-11-19T02:52:42;11.50;99.90
52709;DHT22;38606;52.986;6.980;2023-11-19T02:55:09;11.60;99.90
52709;DHT22;38606;52.986;6.980;2023-11-19T02:57:41;11.60;99.90
52709;DHT22;38606;52.986;6.980;2023-11-19T03:00:17;11.70;99.90
52709;DHT22;38606;52.986;6.980;2023-11-19T03:02:46;11.90;99.90
52709;DHT22;38606;52.986;6.980;2023-11-19T03:05:14;11.70;99.90
52709;DHT22;38606;52.986;6.980;2023-11-19T03:07:43;11.80;99.90
52709;DHT22;38606;52.986;6.980;2023-11-19T03:10:10;11.80;99.90
52709;DHT22;38606;52.986;6.980;2023-11-19T03:12:39;11.70;99.90
52709;DHT22;38606;52.986;6.980;2023-11-19T03:15:06;11.90;99.90
52709;DHT22;38606;52.986;6.980;2023-11-19T03:17:33;12.00;99.90
52709;DHT22;38606;52.986;6.980;2023-11-19T03:20:00;11.80;99.90
52709;DHT22;38606;52.986;6.980;2023-11-19T03:22:26;12.00;99.90
52709;DHT22;38606;52.986;6.980;2023-11-19T03:24:52;10.70;99.90
52709;DHT22;38606;52.986;6.980;2023-11-19T03:27:18;12.10;99.90
52709;DHT22;38606;52.986;6.980;2023-11-19T03:29:43;12.10;99.90
52709;DHT22;38606;52.986;6.980;2023-11-19T03:32:09;11.90;99.90
52709;DHT22;38606;52.986;6.980;2023-11-19T03:34:35;11.80;99.90
52709;DHT22;38606;52.986;6.980;2023-11-19T03:37:00;12.10;99.90
52709;DHT22;38606;52.986;6.980;2023-11-19T03:39:26;12.20;99.90
52709;DHT22;38606;52.986;6.980;2023-11-19T03:41:52;11.80;99.90
52709;DHT22;38606;52.986;6.980;2023-11-19T03:44:18;12.20;99.90
52709;DHT22;38606;52.986;6.980;2023-11-19T03:46:44;11.80;99.90
52709;DHT22;38606;52.986;6.980;2023-11-19T03:49:11;12.00;99.90
52709;DHT22;38606;52.986;6.980;2023-11-19T03:51:37;11.80;99.90
52709;DHT22;38606;52.986;6.980;2023-11-19T03:54:03;12.20;99.90
52709;DHT22;38606;52.986;6.980;2023-11-19T03:56:29;12.10;99.90
52709;DHT22;38606;52.986;6.980;2023-11-19T03:58:56;12.10;99.90
52709;DHT22;38606;52.986;6.980;2023-11-19T04:01:22;11.90;99.90
52709;DHT22;38606;52.986;6.980;2023-11-19T04:03:47;12.00;99.90
52709;DHT22;38606;52.986;6.980;2023-11-19T04:06:13;12.00;99.90
52709;DHT22;38606;52.986;6.980;2023-11-19T04:08:39;12.00;99.90
52709;DHT22;38606;52.986;6.980;2023-11-19T04:11:05;12.20;99.90
52709;DHT22;38606;52.986;6.980;2023-11-19T04:13:31;12.00;99.90
52709;DHT22;38606;52.986;6.980;2023-11-19T04:15:57;12.20;99.90
52709;DHT22;38606;52.986;6.980;2023-11-19T04:18:22;12.10;99.90
52709;DHT22;38606;52.986;6.980;2023-11-19T04:20:49;12.10;99.90
52709;DHT22;38606;52.986;6.980;2023-11-19T04:23:15;12.20;99.90
52709;DHT22;38606;52.986;6.980;2023-11-19T04:25:41;12.10;99.90
52709;DHT22;38606;52.986;6.980;2023-11-19T04:28:07;12.20;99.90
52709;DHT22;38606;52.986;6.980;2023-11-19T04:30:33;12.10;99.90
52709;DHT22;38606;52.986;6.980;2023-11-19T04:33:00;12.20;99.90
52709;DHT22;38606;52.986;6.980;2023-11-19T04:35:26;12.20;99.90
52709;DHT22;38606;52.986;6.980;2023-11-19T04:37:52;11.90;99.90
52709;DHT22;38606;52.986;6.980;2023-11-19T04:40:18;12.10;99.90
52709;DHT22;38606;52.986;6.980;2023-11-19T04:42:44;12.00;99.90
52709;DHT22;38606;52.986;6.980;2023-11-19T04:45:09;11.90;99.90
52709;DHT22;38606;52.986;6.980;2023-11-19T04:47:36;12.00;99.90
52709;DHT22;38606;52.986;6.980;2023-11-19T04:50:02;12.20;99.90
52709;DHT22;38606;52.986;6.980;2023-11-19T04:52:29;11.80;99.90
52709;DHT22;38606;52.986;6.980;2023-11-19T04:54:55;11.90;99.90
52709;DHT22;38606;52.986;6.980;2023-11-19T04:57:20;12.00;99.90
52709;DHT22;38606;52.986;6.980;2023-11-19T04:59:46;12.00;99.90
52709;DHT22;38606;52.986;6.980;2023-11-19T05:02:12;12.10;99.90
52709;DHT22;38606;52.986;6.980;2023-11-19T05:04:42;12.00;99.90
52709;DHT22;38606;52.986;6.980;2023-11-19T05:07:09;12.00;99.90
52709;DHT22;38606;52.986;6.980;2023-11-19T05:09:35;12.00;99.90
52709;DHT22;38606;52.986;6.980;2023-11-19T05:12:01;12.00;99.90
52709;DHT22;38606;52.986;6.980;2023-11-19T05:14:27;12.10;99.90
52709;DHT22;38606;52.986;6.980;2023-11-19T05:16:53;12.10;99.90
52709;DHT22;38606;52.986;6.980;2023-11-19T05:19:19;11.90;99.90
52709;DHT22;38606;52.986;6.980;2023-11-19T05:21:44;11.80;99.90
52709;DHT22;38606;52.986;6.980;2023-11-19T05:24:11;11.70;99.90
52709;DHT22;38606;52.986;6.980;2023-11-19T05:26:39;11.80;99.90
52709;DHT22;38606;52.986;6.980;2023-11-19T05:29:06;12.00;99.90
52709;DHT22;38606;52.986;6.980;2023-11-19T05:31:31;11.70;99.90
52709;DHT22;38606;52.986;6.980;2023-11-19T05:33:57;11.80;99.90
52709;DHT22;38606;52.986;6.980;2023-11-19T05:36:23;12.00;99.90
52709;DHT22;38606;52.986;6.980;2023-11-19T05:38:48;12.30;99.90
52709;DHT22;38606;52.986;6.980;2023-11-19T05:41:14;11.80;99.90
52709;DHT22;38606;52.986;6.980;2023-11-19T05:43:40;11.60;99.90
52709;DHT22;38606;52.986;6.980;2023-11-19T05:46:07;11.80;99.90
52709;DHT22;38606;52.986;6.980;2023-11-19T05:48:32;11.80;99.90
52709;DHT22;38606;52.986;6.980;2023-11-19T05:50:58;11.80;99.90
52709;DHT22;38606;52.986;6.980;2023-11-19T05:53:24;11.90;99.90
52709;DHT22;38606;52.986;6.980;2023-11-19T05:55:50;11.70;99.90
52709;DHT22;38606;52.986;6.980;2023-11-19T05:58:27;11.80;99.90
52709;DHT22;38606;52.986;6.980;2023-11-19T06:00:54;11.70;99.90
52709;DHT22;38606;52.986;6.980;2023-11-19T06:03:21;11.70;99.90
52709;DHT22;38606;52.986;6.980;2023-11-19T06:05:47;11.60;99.90
52709;DHT22;38606;52.986;6.980;2023-11-19T06:08:13;11.90;99.90
52709;DHT22;38606;52.986;6.980;2023-11-19T06:10:43;11.80;99.90
52709;DHT22;38606;52.986;6.980;2023-11-19T06:13:11;11.70;99.90
52709;DHT22;38606;52.986;6.980;2023-11-19T06:15:38;11.80;99.90
52709;DHT22;38606;52.986;6.980;2023-11-19T06:18:03;11.80;99.90
52709;DHT22;38606;52.986;6.980;2023-11-19T06:20:30;11.90;99.90
52709;DHT22;38606;52.986;6.980;2023-11-19T06:22:57;11.60;99.90
52709;DHT22;38606;52.986;6.980;2023-11-19T06:25:23;11.70;99.90
52709;DHT22;38606;52.986;6.980;2023-11-19T06:27:50;11.70;99.90
52709;DHT22;38606;52.986;6.980;2023-11-19T06:30:16;11.70;99.90
52709;DHT22;38606;52.986;6.980;2023-11-19T06:32:42;11.70;99.90
52709;DHT22;38606;52.986;6.980;2023-11-19T06:35:08;11.50;99.90
52709;DHT22;38606;52.986;6.980;2023-11-19T06:37:41;11.70;99.90
52709;DHT22;38606;52.986;6.980;2023-11-19T06:40:07;11.60;99.90
52709;DHT22;38606;52.986;6.980;2023-11-19T06:42:35;11.50;99.90
52709;DHT22;38606;52.986;6.980;2023-11-19T06:45:01;11.70;99.90
52709;DHT22;38606;52.986;6.980;2023-11-19T06:47:27;11.90;99.90
52709;DHT22;38606;52.986;6.980;2023-11-19T06:49:54;11.70;99.90
52709;DHT22;38606;52.986;6.980;2023-11-19T06:52:20;12.30;99.90
52709;DHT22;38606;52.986;6.980;2023-11-19T06:54:46;11.60;99.90
52709;DHT22;38606;52.986;6.980;2023-11-19T06:57:12;11.60;99.90
52709;DHT22;38606;52.986;6.980;2023-11-19T06:59:38;11.50;99.90
52709;DHT22;38606;52.986;6.980;2023-11-19T07:02:04;11.50;99.90
52709;DHT22;38606;52.986;6.980;2023-11-19T07:04:31;11.40;99.90
52709;DHT22;38606;52.986;6.980;2023-11-19T07:06:57;11.70;99.90
52709;DHT22;38606;52.986;6.980;2023-11-19T07:09:22;11.40;99.90
52709;DHT22;38606;52.986;6.980;2023-11-19T07:11:49;11.50;99.90
52709;DHT22;38606;52.986;6.980;2023-11-19T07:14:17;11.40;99.90
52709;DHT22;38606;52.986;6.980;2023-11-19T07:16:43;11.40;99.90
52709;DHT22;38606;52.986;6.980;2023-11-19T07:19:09;11.50;99.90
52709;DHT22;38606;52.986;6.980;2023-11-19T07:21:35;11.50;99.90
52709;DHT22;38606;52.986;6.980;2023-11-19T07:24:05;11.30;99.90
52709;DHT22;38606;52.986;6.980;2023-11-19T07:26:31;11.50;99.90
52709;DHT22;38606;52.986;6.980;2023-11-19T07:28:57;11.50;99.90
52709;DHT22;38606;52.986;6.980;2023-11-19T07:31:23;11.30;99.90
52709;DHT22;38606;52.986;6.980;2023-11-19T07:33:49;11.50;99.90
52709;DHT22;38606;52.986;6.980;2023-11-19T07:36:15;11.40;99.90
52709;DHT22;38606;52.986;6.980;2023-11-19T07:38:42;9.60;99.90
52709;DHT22;38606;52.986;6.980;2023-11-19T07:41:08;11.50;99.90
52709;DHT22;38606;52.986;6.980;2023-11-19T07:43:43;11.50;99.90
52709;DHT22;38606;52.986;6.980;2023-11-19T07:46:13;11.60;99.90
52709;DHT22;38606;52.986;6.980;2023-11-19T07:48:42;11.40;99.90
52709;DHT22;38606;52.986;6.980;2023-11-19T07:51:08;11.40;99.90
52709;DHT22;38606;52.986;6.980;2023-11-19T07:53:34;11.50;99.90
52709;DHT22;38606;52.986;6.980;2023-11-19T07:56:00;11.30;99.90
52709;DHT22;38606;52.986;6.980;2023-11-19T07:58:26;11.60;99.90
52709;DHT22;38606;52.986;6.980;2023-11-19T08:00:52;11.40;99.90
52709;DHT22;38606;52.986;6.980;2023-11-19T08:03:18;11.30;99.90
52709;DHT22;38606;52.986;6.980;2023-11-19T08:05:49;11.70;99.90
52709;DHT22;38606;52.986;6.980;2023-11-19T08:08:19;11.50;99.90
52709;DHT22;38606;52.986;6.980;2023-11-19T08:10:45;11.20;99.90
52709;DHT22;38606;52.986;6.980;2023-11-19T08:13:11;11.40;99.90
52709;DHT22;38606;52.986;6.980;2023-11-19T08:15:37;11.30;99.90
52709;DHT22;38606;52.986;6.980;2023-11-19T08:18:03;11.40;99.90
52709;DHT22;38606;52.986;6.980;2023-11-19T08:20:29;11.50;99.90
52709;DHT22;38606;52.986;6.980;2023-11-19T08:22:54;11.70;99.90
52709;DHT22;38606;52.986;6.980;2023-11-19T08:25:20;11.60;99.90
52709;DHT22;38606;52.986;6.980;2023-11-19T08:27:46;11.50;99.90
52709;DHT22;38606;52.986;6.980;2023-11-19T08:30:12;11.30;99.90
52709;DHT22;38606;52.986;6.980;2023-11-19T08:32:38;11.60;99.90
52709;DHT22;38606;52.986;6.980;2023-11-19T08:35:04;11.40;99.90
52709;DHT22;38606;52.986;6.980;2023-11-19T08:37:31;11.60;99.90
52709;DHT22;38606;52.986;6.980;2023-11-19T08:39:56;11.30;99.90
52709;DHT22;38606;52.986;6.980;2023-11-19T08:42:22;11.60;99.90
52709;DHT22;38606;52.986;6.980;2023-11-19T08:44:51;11.50;99.90
52709;DHT22;38606;52.986;6.980;2023-11-19T08:47:19;11.50;99.90
52709;DHT22;38606;52.986;6.980;2023-11-19T08:49:45;11.60;99.90
52709;DHT22;38606;52.986;6.980;2023-11-19T08:52:11;11.50;99.90
52709;DHT22;38606;52.986;6.980;2023-11-19T08:54:37;11.60;99.90
52709;DHT22;38606;52.986;6.980;2023-11-19T08:57:03;11.50;99.90
52709;DHT22;38606;52.986;6.980;2023-11-19T08:59:30;11.60;99.90
52709;DHT22;38606;52.986;6.980;2023-11-19T09:01:55;11.70;99.90
52709;DHT22;38606;52.986;6.980;2023-11-19T09:04:21;11.90;99.90
52709;DHT22;38606;52.986;6.980;2023-11-19T09:06:50;11.70;99.90
52709;DHT22;38606;52.986;6.980;2023-11-19T09:09:16;11.60;99.90
52709;DHT22;38606;52.986;6.980;2023-11-19T09:11:42;11.80;99.90
52709;DHT22;38606;52.986;6.980;2023-11-19T09:14:08;11.70;99.90
52709;DHT22;38606;52.986;6.980;2023-11-19T09:16:33;11.90;99.90
52709;DHT22;38606;52.986;6.980;2023-11-19T09:19:00;11.60;99.90
52709;DHT22;38606;52.986;6.980;2023-11-19T09:21:26;11.60;99.90
52709;DHT22;38606;52.986;6.980;2023-11-19T09:23:51;11.60;99.90
52709;DHT22;38606;52.986;6.980;2023-11-19T09:26:19;11.60;99.90
52709;DHT22;38606;52.986;6.980;2023-11-19T09:28:45;11.70;99.90
52709;DHT22;38606;52.986;6.980;2023-11-19T09:31:15;11.50;99.90
52709;DHT22;38606;52.986;6.980;2023-11-19T09:33:41;11.60;99.90
52709;DHT22;38606;52.986;6.980;2023-11-19T09:36:07;11.60;99.90
52709;DHT22;38606;52.986;6.980;2023-11-19T09:38:33;11.60;99.90
52709;DHT22;38606;52.986;6.980;2023-11-19T09:40:59;11.80;99.90
52709;DHT22;38606;52.986;6.980;2023-11-19T09:43:33;11.50;99.90
52709;DHT22;38606;52.986;6.980;2023-11-19T09:46:04;11.70;99.90
52709;DHT22;38606;52.986;6.980;2023-11-19T09:48:36;11.90;99.90
52709;DHT22;38606;52.986;6.980;2023-11-19T09:51:06;11.80;99.90
52709;DHT22;38606;52.986;6.980;2023-11-19T09:53:32;11.80;99.90
52709;DHT22;38606;52.986;6.980;2023-11-19T09:56:02;11.70;99.90
52709;DHT22;38606;52.986;6.980;2023-11-19T09:58:32;11.70;99.90
52709;DHT22;38606;52.986;6.980;2023-11-19T10:00:59;11.80;99.90
52709;DHT22;38606;52.986;6.980;2023-11-19T10:03:35;11.90;99.90
52709;DHT22;38606;52.986;6.980;2023-11-19T10:06:03;11.80;99.90
52709;DHT22;38606;52.986;6.980;2023-11-19T10:08:30;12.00;99.90
52709;DHT22;38606;52.986;6.980;2023-11-19T10:10:56;11.90;99.90
52709;DHT22;38606;52.986;6.980;2023-11-19T10:13:26;11.70;99.90
52709;DHT22;38606;52.986;6.980;2023-11-19T10:15:53;11.90;99.90
52709;DHT22;38606;52.986;6.980;2023-11-19T10:18:18;12.00;99.90
52709;DHT22;38606;52.986;6.980;2023-11-19T10:20:49;11.90;99.90
52709;DHT22;38606;52.986;6.980;2023-11-19T10:23:14;11.80;99.90
52709;DHT22;38606;52.986;6.980;2023-11-19T10:25:40;11.60;99.90
52709;DHT22;38606;52.986;6.980;2023-11-19T10:28:06;12.00;99.90
52709;DHT22;38606;52.986;6.980;2023-11-19T10:30:32;12.20;99.90
52709;DHT22;38606;52.986;6.980;2023-11-19T10:33:10;11.90;99.90
52709;DHT22;38606;52.986;6.980;2023-11-19T10:35:54;11.90;99.90
52709;DHT22;38606;52.986;6.980;2023-11-19T10:38:22;12.00;99.90
52709;DHT22;38606;52.986;6.980;2023-11-19T10:40:49;11.80;99.90
52709;DHT22;38606;52.986;6.980;2023-11-19T10:43:17;12.00;99.90
52709;DHT22;38606;52.986;6.980;2023-11-19T10:45:43;11.90;99.90
52709;DHT22;38606;52.986;6.980;2023-11-19T10:48:09;11.90;99.90
52709;DHT22;38606;52.986;6.980;2023-11-19T10:50:37;12.20;99.90
52709;DHT22;38606;52.986;6.980;2023-11-19T10:53:04;11.90;99.90
52709;DHT22;38606;52.986;6.980;2023-11-19T10:55:32;11.70;99.90
52709;DHT22;38606;52.986;6.980;2023-11-19T10:58:03;10.50;99.90
52709;DHT22;38606;52.986;6.980;2023-11-19T11:00:30;11.80;99.90
52709;DHT22;38606;52.986;6.980;2023-11-19T11:03:02;11.60;99.90
52709;DHT22;38606;52.986;6.980;2023-11-19T11:05:34;11.80;99.90
52709;DHT22;38606;52.986;6.980;2023-11-19T11:08:00;11.60;99.90
52709;DHT22;38606;52.986;6.980;2023-11-19T11:10:28;11.60;99.90
52709;DHT22;38606;52.986;6.980;2023-11-19T11:12:59;11.40;99.90
52709;DHT22;38606;52.986;6.980;2023-11-19T11:15:27;11.50;99.90
52709;DHT22;38606;52.986;6.980;2023-11-19T11:18:00;11.50;99.90
52709;DHT22;38606;52.986;6.980;2023-11-19T11:20:30;11.50;99.90
52709;DHT22;38606;52.986;6.980;2023-11-19T11:28:57;11.40;99.90
52709;DHT22;38606;52.986;6.980;2023-11-19T11:34:49;11.60;99.90
52709;DHT22;38606;52.986;6.980;2023-11-19T11:37:30;11.40;99.90
52709;DHT22;38606;52.986;6.980;2023-11-19T11:39:57;11.40;99.90
52709;DHT22;38606;52.986;6.980;2023-11-19T11:45:12;11.40;99.90
52709;DHT22;38606;52.986;6.980;2023-11-19T11:50:19;11.40;99.90
52709;DHT22;38606;52.986;6.980;2023-11-19T11:55:52;11.20;99.90
52709;DHT22;38606;52.986;6.980;2023-11-19T11:58:31;11.70;99.90
52709;DHT22;38606;52.986;6.980;2023-11-19T12:00:58;11.40;99.90
52709;DHT22;38606;52.986;6.980;2023-11-19T12:03:27;11.50;99.90
52709;DHT22;38606;52.986;6.980;2023-11-19T12:05:53;11.80;99.90
52709;DHT22;38606;52.986;6.980;2023-11-19T12:08:20;11.70;99.90
52709;DHT22;38606;52.986;6.980;2023-11-19T12:10:51;11.80;99.90
52709;DHT22;38606;52.986;6.980;2023-11-19T12:13:18;11.70;99.90
52709;DHT22;38606;52.986;6.980;2023-11-19T12:18:30;11.90;99.90
52709;DHT22;38606;52.986;6.980;2023-11-19T12:21:00;11.70;99.90
52709;DHT22;38606;52.986;6.980;2023-11-19T12:23:30;11.70;99.90
52709;DHT22;38606;52.986;6.980;2023-11-19T12:25:59;11.70;99.90
52709;DHT22;38606;52.986;6.980;2023-11-19T12:28:25;11.90;99.90
52709;DHT22;38606;52.986;6.980;2023-11-19T12:30:54;11.60;99.90
52709;DHT22;38606;52.986;6.980;2023-11-19T12:33:32;11.80;99.90
52709;DHT22;38606;52.986;6.980;2023-11-19T12:35:58;11.80;99.90
52709;DHT22;38606;52.986;6.980;2023-11-19T12:38:25;11.50;99.90
52709;DHT22;38606;52.986;6.980;2023-11-19T12:41:08;11.70;99.90
52709;DHT22;38606;52.986;6.980;2023-11-19T12:43:37;11.80;99.90
52709;DHT22;38606;52.986;6.980;2023-11-19T12:46:23;11.70;99.90
52709;DHT22;38606;52.986;6.980;2023-11-19T12:48:50;11.40;99.90
52709;DHT22;38606;52.986;6.980;2023-11-19T12:51:16;11.60;99.90
52709;DHT22;38606;52.986;6.980;2023-11-19T12:53:52;11.60;99.90
52709;DHT22;38606;52.986;6.980;2023-11-19T12:56:23;11.70;99.90
52709;DHT22;38606;52.986;6.980;2023-11-19T12:58:50;11.80;99.90
52709;DHT22;38606;52.986;6.980;2023-11-19T13:01:17;11.80;99.90
52709;DHT22;38606;52.986;6.980;2023-11-19T13:03:43;11.80;99.90
52709;DHT22;38606;52.986;6.980;2023-11-19T13:06:11;11.70;99.90
52709;DHT22;38606;52.986;6.980;2023-11-19T13:08:39;11.80;99.90
52709;DHT22;38606;52.986;6.980;2023-11-19T13:11:06;11.50;99.90
52709;DHT22;38606;52.986;6.980;2023-11-19T13:13:33;11.80;99.90
52709;DHT22;38606;52.986;6.980;2023-11-19T13:16:15;11.80;99.90
52709;DHT22;38606;52.986;6.980;2023-11-19T13:18:41;11.90;99.90
52709;DHT22;38606;52.986;6.980;2023-11-19T13:21:06;12.00;99.90
52709;DHT22;38606;52.986;6.980;2023-11-19T13:23:32;11.20;99.90
52709;DHT22;38606;52.986;6.980;2023-11-19T13:25:58;11.90;99.90
52709;DHT22;38606;52.986;6.980;2023-11-19T13:28:24;11.80;99.90
52709;DHT22;38606;52.986;6.980;2023-11-19T13:30:51;11.50;99.90
52709;DHT22;38606;52.986;6.980;2023-11-19T13:33:17;11.60;99.90
52709;DHT22;38606;52.986;6.980;2023-11-19T13:35:43;11.90;99.90
52709;DHT22;38606;52.986;6.980;2023-11-19T13:38:08;11.80;99.90
52709;DHT22;38606;52.986;6.980;2023-11-19T13:40:35;11.70;99.90
52709;DHT22;38606;52.986;6.980;2023-11-19T13:43:00;11.70;99.90
52709;DHT22;38606;52.986;6.980;2023-11-19T13:45:26;11.90;99.90
52709;DHT22;38606;52.986;6.980;2023-11-19T13:47:52;11.80;99.90
52709;DHT22;38606;52.986;6.980;2023-11-19T13:50:17;11.80;99.90
52709;DHT22;38606;52.986;6.980;2023-11-19T13:52:44;11.90;99.90
52709;DHT22;38606;52.986;6.980;2023-11-19T13:55:12;11.90;99.90
52709;DHT22;38606;52.986;6.980;2023-11-19T13:57:39;11.60;99.90
52709;DHT22;38606;52.986;6.980;2023-11-19T14:00:10;11.60;99.90
52709;DHT22;38606;52.986;6.980;2023-11-19T14:02:39;11.60;99.90
52709;DHT22;38606;52.986;6.980;2023-11-19T14:05:06;11.80;99.90
52709;DHT22;38606;52.986;6.980;2023-11-19T14:07:32;11.50;99.90
52709;DHT22;38606;52.986;6.980;2023-11-19T14:09:59;11.40;99.90
52709;DHT22;38606;52.986;6.980;2023-11-19T14:12:24;11.50;99.90
52709;DHT22;38606;52.986;6.980;2023-11-19T14:14:50;11.60;99.90
52709;DHT22;38606;52.986;6.980;2023-11-19T14:17:16;11.60;99.90
52709;DHT22;38606;52.986;6.980;2023-11-19T14:19:42;11.60;99.90
52709;DHT22;38606;52.986;6.980;2023-11-19T14:22:08;11.50;99.90
52709;DHT22;38606;52.986;6.980;2023-11-19T14:24:34;11.50;99.90
52709;DHT22;38606;52.986;6.980;2023-11-19T14:27:00;11.60;99.90
52709;DHT22;38606;52.986;6.980;2023-11-19T14:29:26;11.60;99.90
52709;DHT22;38606;52.986;6.980;2023-11-19T14:31:53;11.80;99.90
52709;DHT22;38606;52.986;6.980;2023-11-19T14:34:20;11.50;99.90
52709;DHT22;38606;52.986;6.980;2023-11-19T14:36:46;9.80;99.90
52709;DHT22;38606;52.986;6.980;2023-11-19T14:39:11;11.50;99.90
52709;DHT22;38606;52.986;6.980;2023-11-19T14:41:37;11.60;99.90
52709;DHT22;38606;52.986;6.980;2023-11-19T14:44:03;11.40;99.90
52709;DHT22;38606;52.986;6.980;2023-11-19T14:46:29;11.40;99.90
52709;DHT22;38606;52.986;6.980;2023-11-19T14:48:55;11.60;99.90
52709;DHT22;38606;52.986;6.980;2023-11-19T14:51:21;11.30;99.90
52709;DHT22;38606;52.986;6.980;2023-11-19T14:53:47;11.40;99.90
52709;DHT22;38606;52.986;6.980;2023-11-19T14:56:13;10.50;99.90
52709;DHT22;38606;52.986;6.980;2023-11-19T14:58:39;11.30;99.90
52709;DHT22;38606;52.986;6.980;2023-11-19T15:01:05;11.30;99.90
52709;DHT22;38606;52.986;6.980;2023-11-19T15:03:31;11.10;99.90
52709;DHT22;38606;52.986;6.980;2023-11-19T15:05:58;11.30;99.90
52709;DHT22;38606;52.986;6.980;2023-11-19T15:08:23;11.40;99.90
52709;DHT22;38606;52.986;6.980;2023-11-19T15:10:49;11.30;99.90
52709;DHT22;38606;52.986;6.980;2023-11-19T15:13:15;11.40;99.90
52709;DHT22;38606;52.986;6.980;2023-11-19T15:15:41;11.10;99.90
52709;DHT22;38606;52.986;6.980;2023-11-19T15:18:07;11.30;99.90
52709;DHT22;38606;52.986;6.980;2023-11-19T15:20:33;11.20;99.90
52709;DHT22;38606;52.986;6.980;2023-11-19T15:22:59;11.00;99.90
52709;DHT22;38606;52.986;6.980;2023-11-19T15:25:24;11.30;99.90
52709;DHT22;38606;52.986;6.980;2023-11-19T15:27:50;10.90;99.90
52709;DHT22;38606;52.986;6.980;2023-11-19T15:30:16;11.20;99.90
52709;DHT22;38606;52.986;6.980;2023-11-19T15:32:42;11.00;99.90
52709;DHT22;38606;52.986;6.980;2023-11-19T15:35:09;11.10;99.90
52709;DHT22;38606;52.986;6.980;2023-11-19T15:37:36;11.10;99.90
52709;DHT22;38606;52.986;6.980;2023-11-19T15:40:01;10.90;99.90
52709;DHT22;38606;52.986;6.980;2023-11-19T15:42:29;11.10;99.90
52709;DHT22;38606;52.986;6.980;2023-11-19T15:44:55;11.10;99.90
52709;DHT22;38606;52.986;6.980;2023-11-19T15:47:21;11.10;99.90
52709;DHT22;38606;52.986;6.980;2023-11-19T15:49:47;11.10;99.90